Latest Weather Observations for Grafton Airport

IDN60801

Issued at 12:05 pm EDT Thursday 27 November 2014 (issued every 30 minutes, with the page automatically refreshed every 10 minutes)

About weather observations | Map of weather stations | Latest weather observations for NSW | Other Formats
Station Details ID: 058161 Name: GRAFTON AIRPORT AWS Lat: -29.76 Lon: 153.03 Height: 25.09 m
Data from the previous 72 hours. | See also: Recent months for locations in New South Wales
Date/Time
EDT
Temp
°C
App
Temp
°C
Dew
Point
Rel
Hum
%
Delta-T
°C
Wind Press
QNH
hPa
Press
MSL
hPa
Rain
since 9 am
mm
Dir
 
Spd
km/h
Gust
km/h
Spd
kts
Gust
kts
27/12:00pm 27.1 27.2 19.2 62 5.1 SE 17 26 9 14 1016.3 1016.2 0.0
27/11:30am 26.4 26.6 19.3 65 4.6 ESE 17 26 9 14 1016.7 1016.6 0.0
27/11:00am 25.1 27.9 20.4 75 3.1 S 6 11 3 6 1017.1 1017.0 0.0
27/10:42am 23.2 24.9 19.4 79 2.4 S 9 13 5 7 1017.2 1017.1 0.0
27/10:30am 22.8 23.2 19.8 83 1.9 S 17 24 9 13 1017.4 1017.3 0.0
27/10:00am 23.0 23.9 20.0 83 1.9 S 15 24 8 13 1017.2 1017.1 0.0
27/09:56am 23.3 24.3 20.2 83 2.0 S 15 20 8 11 1017.2 1017.1 0.0
27/09:47am 23.2 23.8 20.2 83 1.9 S 17 20 9 11 1017.2 1017.1 0.0
27/09:30am 23.0 24.3 20.1 84 1.9 S 13 19 7 10 1017.2 1017.1 0.0
27/09:00am 22.5 25.2 20.6 89 1.2 S 7 9 4 5 1017.2 1017.1 8.6
27/08:30am 21.7 26.2 21.5 99 0.1 CALM 0 0 0 0 1016.8 1016.7 8.6
27/08:17am 21.3 25.7 21.3 100 0.0 CALM 0 0 0 0 1016.9 1016.8 8.6
27/08:00am 21.1 25.4 21.1 100 0.0 CALM 0 0 0 0 1016.8 1016.7 8.6
27/07:30am 20.7 24.8 20.7 100 0.0 CALM 0 0 0 0 1016.4 1016.3 8.6
27/07:00am 20.2 24.0 20.2 100 0.0 CALM 0 0 0 0 1015.8 1015.7 8.6
27/06:30am 19.7 23.3 19.7 100 0.0 CALM 0 0 0 0 1015.4 1015.3 8.6
27/06:00am 19.4 21.5 19.4 100 0.0 N 7 9 4 5 1015.0 1014.9 8.6
27/05:30am 18.9 22.0 18.7 99 0.1 CALM 0 0 0 0 1015.1 1015.0 8.6
27/05:00am 19.3 21.5 19.1 99 0.1 NNE 6 7 3 4 1015.0 1014.9 8.6
27/04:45am 19.4 21.6 19.1 98 0.2 NE 6 7 3 4 1014.9 1014.8 8.6
27/04:30am 19.6 22.6 19.3 98 0.2 SE 2 7 1 4 1014.9 1014.8 8.6
27/04:08am 19.9 23.1 19.7 99 0.1 S 2 6 1 3 1014.8 1014.7 8.6
27/04:00am 19.9 22.3 19.7 99 0.1 S 6 7 3 4 1014.8 1014.7 8.6
27/03:49am 20.0 22.3 19.8 99 0.1 S 7 9 4 5 1014.8 1014.7 8.6
27/03:30am 20.1 23.0 19.9 99 0.1 SW 4 7 2 4 1014.8 1014.7 8.6
27/03:20am 20.2 23.9 19.9 98 0.2 CALM 0 0 0 0 1014.9 1014.8 8.6
27/03:00am 20.4 23.4 20.1 98 0.2 SSE 4 7 2 4 1015.0 1014.9 8.6
27/02:30am 20.6 24.5 20.4 99 0.1 CALM 0 0 0 0 1015.0 1014.9 8.6
27/02:20am 20.6 24.5 20.4 99 0.1 CALM 0 0 0 0 1015.1 1015.0 8.6
27/02:00am 20.6 24.5 20.3 98 0.2 CALM 0 0 0 0 1015.5 1015.4 8.6
27/01:30am 20.5 24.2 20.0 97 0.3 CALM 0 0 0 0 1015.8 1015.7 8.6
27/01:00am 20.7 24.4 20.0 96 0.4 CALM 0 0 0 0 1016.1 1016.0 8.6
27/12:54am 20.8 24.6 20.1 96 0.4 CALM 0 0 0 0 1016.1 1016.0 8.6
27/12:30am 21.1 25.0 20.4 96 0.5 CALM 0 0 0 0 1016.5 1016.4 8.6
27/12:17am 21.1 25.0 20.4 96 0.5 CALM 0 0 0 0 1016.8 1016.7 8.6
27/12:00am 21.1 25.0 20.4 96 0.5 CALM 0 0 0 0 1016.9 1016.8 8.6
 
Date/Time
EDT
Temp
°C
App
Temp
°C
Dew
Point
Rel
Hum
%
Delta-T
°C
Wind Press
QNH
hPa
Press
MSL
hPa
Rain
since 9 am
mm
Dir
 
Spd
km/h
Gust
km/h
Spd
kts
Gust
kts
26/11:31pm 20.9 24.7 20.2 96 0.4 CALM 0 0 0 0 1017.3 1017.2 8.6
26/11:30pm 20.9 24.7 20.2 96 0.4 CALM 0 0 0 0 1017.3 1017.2 8.6
26/11:09pm 20.9 24.7 20.1 95 0.5 CALM 0 0 0 0 1017.3 1017.2 8.6
26/11:01pm 21.0 24.8 20.2 95 0.5 CALM 0 0 0 0 1017.4 1017.3 8.6
26/11:00pm 21.0 24.8 20.2 95 0.5 CALM 0 0 0 0 1017.4 1017.3 8.6
26/10:30pm 21.3 25.2 20.3 94 0.6 CALM 0 0 0 0 1017.5 1017.4 8.6
26/10:14pm 21.3 25.2 20.3 94 0.6 CALM 0 0 0 0 1017.5 1017.4 8.6
26/10:00pm 21.2 25.0 20.2 94 0.6 CALM 0 4 0 2 1017.4 1017.3 8.6
26/09:30pm 21.4 25.2 20.2 93 0.8 CALM 0 0 0 0 1017.0 1016.9 8.6
26/09:00pm 21.5 24.6 20.3 93 0.8 S 4 7 2 4 1016.7 1016.6 8.6
26/08:30pm 21.8 25.7 20.4 92 0.9 CALM 0 0 0 0 1016.9 1016.8 8.6
26/08:00pm 21.9 25.6 20.0 89 1.2 CALM 0 0 0 0 1016.8 1016.7 8.6
26/07:30pm 22.4 26.1 19.9 86 1.6 CALM 0 6 0 3 1016.6 1016.5 8.6
26/07:00pm 22.7 26.4 19.9 84 1.8 CALM 0 0 0 0 1016.7 1016.6 8.6
26/06:30pm 22.8 26.1 20.0 84 1.8 ESE 2 7 1 4 1016.5 1016.4 8.6
26/06:00pm 22.8 25.1 19.8 83 1.9 SE 7 9 4 5 1016.4 1016.3 8.6
26/05:30pm 22.9 24.9 19.9 83 1.9 E 9 13 5 7 1016.2 1016.1 8.6
26/05:00pm 23.1 25.2 20.2 84 1.9 E 9 13 5 7 1015.9 1015.8 8.6
26/04:30pm 23.2 25.0 20.3 84 1.9 SSE 11 17 6 9 1016.0 1015.9 8.6
26/04:00pm 23.1 25.0 20.6 86 1.6 SE 11 17 6 9 1016.2 1016.1 8.6
26/03:30pm 22.6 24.3 20.9 90 1.1 SSE 13 17 7 9 1016.4 1016.3 8.6
26/03:00pm 22.0 23.9 20.5 91 1.0 SSE 11 15 6 8 1016.9 1016.8 8.6
26/02:30pm 21.8 24.0 20.4 92 0.9 SE 9 13 5 7 1016.9 1016.8 8.6
26/02:29pm 21.8 24.0 20.4 92 0.9 SE 9 13 5 7 1016.9 1016.8 8.6
26/02:00pm 22.1 24.4 20.7 92 0.9 SE 9 13 5 7 1017.2 1017.1 8.2
26/01:30pm 22.5 24.9 20.8 90 1.1 S 9 11 5 6 1017.4 1017.3 5.8
26/01:04pm 23.8 26.0 19.5 77 2.8 SSW 7 11 4 6 1017.4 1017.3 0.4
26/01:00pm 24.1 26.2 19.4 75 3.0 SSW 7 11 4 6 1017.4 1017.3 0.0
26/12:30pm 24.9 26.3 19.5 72 3.5 SSE 11 17 6 9 1017.5 1017.4 0.0
26/12:00pm 24.7 26.1 19.5 73 3.3 SSE 11 17 6 9 1017.7 1017.6 0.0
26/11:30am 24.2 25.4 19.9 77 2.8 SSE 13 19 7 10 1017.8 1017.7 0.0
26/11:01am 23.5 24.2 19.6 79 2.5 S 15 19 8 10 1018.4 1018.3 0.0
26/11:00am 23.5 24.2 19.6 79 2.5 S 15 19 8 10 1018.4 1018.3 0.0
26/10:30am 23.2 24.4 19.8 81 2.2 S 13 17 7 9 1018.3 1018.2 0.0
26/10:02am 22.6 24.0 19.6 83 1.9 S 11 17 6 9 1018.2 1018.1 0.0
26/10:00am 22.5 23.4 19.3 82 2.0 S 13 17 7 9 1018.3 1018.2 0.0
26/09:30am 22.3 23.3 19.5 84 1.8 S 13 19 7 10 1018.2 1018.1 0.0
26/09:00am 21.6 22.1 19.2 86 1.5 S 15 20 8 11 1018.4 1018.3 14.8
26/08:30am 21.4 22.4 19.5 89 1.2 S 13 19 7 10 1018.2 1018.1 14.8
26/08:00am 21.3 22.2 19.2 88 1.3 S 13 20 7 11 1018.2 1018.1 14.8
26/07:30am 21.0 22.3 19.3 90 1.1 SSW 11 13 6 7 1018.1 1018.0 14.8
26/07:00am 20.5 21.7 19.0 91 0.9 SSW 11 17 6 9 1018.1 1018.0 14.8
26/06:30am 20.4 21.6 19.1 92 0.8 S 11 15 6 8 1017.5 1017.4 14.8
26/06:00am 20.2 21.0 19.0 93 0.8 S 13 17 7 9 1017.4 1017.3 14.8
26/05:30am 20.0 21.5 18.8 93 0.8 SSW 9 13 5 7 1017.0 1016.9 14.8
26/05:00am 20.0 20.7 18.8 93 0.8 SSW 13 17 7 9 1016.8 1016.7 14.8
26/04:30am 19.9 20.5 18.7 93 0.7 SSW 13 17 7 9 1016.9 1016.8 14.8
26/04:00am 19.8 21.3 18.8 94 0.6 SSW 9 13 5 7 1016.6 1016.5 14.8
26/03:30am 20.0 20.7 18.8 93 0.8 S 13 17 7 9 1016.6 1016.5 14.8
26/03:00am 20.0 21.5 18.8 93 0.8 SSW 9 13 5 7 1017.0 1016.9 14.6
26/02:37am 20.2 21.3 18.9 92 0.8 SSW 11 15 6 8 1017.2 1017.1 14.6
26/02:30am 20.1 21.6 18.8 92 0.8 SSW 9 15 5 8 1017.4 1017.3 14.6
26/02:17am 20.5 21.5 18.6 89 1.2 SSW 11 17 6 9 1017.5 1017.4 14.6
26/02:00am 20.8 22.2 18.7 88 1.3 S 9 13 5 7 1017.7 1017.6 14.6
26/01:30am 20.7 22.0 18.5 87 1.4 SSW 9 13 5 7 1017.7 1017.6 14.6
26/01:00am 20.8 22.2 18.7 88 1.3 SW 9 13 5 7 1018.1 1018.0 14.6
26/12:30am 21.2 22.8 19.1 88 1.3 SSW 9 13 5 7 1018.5 1018.4 14.6
26/12:12am 21.3 23.8 19.9 92 0.9 SSW 6 9 3 5 1018.7 1018.6 14.6
26/12:00am 21.3 24.3 20.1 93 0.8 S 4 9 2 5 1018.6 1018.5 14.6
 
Date/Time
EDT
Temp
°C
App
Temp
°C
Dew
Point
Rel
Hum
%
Delta-T
°C
Wind Press
QNH
hPa
Press
MSL
hPa
Rain
since 9 am
mm
Dir
 
Spd
km/h
Gust
km/h
Spd
kts
Gust
kts
25/11:30pm 21.3 24.0 20.3 94 0.6 SW 6 7 3 4 1018.7 1018.6 14.6
25/11:29pm 21.3 24.0 20.3 94 0.6 WSW 6 7 3 4 1018.7 1018.6 14.6
25/11:00pm 21.1 24.4 19.9 93 0.8 NNW 2 6 1 3 1019.0 1018.9 14.6
25/10:30pm 21.1 24.8 19.9 93 0.8 CALM 0 0 0 0 1018.9 1018.8 14.6
25/10:00pm 21.0 23.3 19.8 93 0.8 NNE 7 11 4 6 1018.3 1018.2 14.6
25/09:30pm 21.4 23.6 19.7 90 1.1 E 7 7 4 4 1017.8 1017.7 14.6
25/09:00pm 21.3 23.6 19.9 92 0.9 SSW 7 9 4 5 1017.7 1017.6 14.6
25/08:30pm 21.4 23.4 20.0 92 0.9 S 9 15 5 8 1017.1 1017.0 14.4
25/08:00pm 21.5 23.7 20.3 93 0.8 S 9 13 5 7 1017.1 1017.0 14.4
25/07:30pm 21.7 23.6 20.5 93 0.8 S 11 15 6 8 1017.2 1017.1 14.2
25/07:00pm 21.8 25.7 20.4 92 0.9 CALM 0 0 0 0 1016.9 1016.8 14.2
25/06:30pm 21.8 24.5 20.6 93 0.8 S 7 11 4 6 1016.0 1015.9 14.2
25/06:00pm 21.5 23.0 20.5 94 0.6 S 13 19 7 10 1014.8 1014.7 14.0
25/05:30pm 21.5 22.9 20.3 93 0.8 SE 13 19 7 10 1014.7 1014.6 13.8
25/05:00pm 22.0 22.3 20.5 91 1.0 SSE 19 24 10 13 1014.6 1014.5 12.0
25/04:46pm 21.9 22.6 20.5 92 0.9 ESE 17 24 9 13 1014.6 1014.5 11.2
25/04:30pm 21.9 21.5 20.2 90 1.1 SE 22 30 12 16 1014.5 1014.4 10.4
25/04:21pm 22.0 20.4 20.1 89 1.2 SSE 28 41 15 22 1014.2 1014.1 9.4
25/04:00pm 22.6 21.3 20.7 89 1.2 S 28 39 15 21 1014.3 1014.2 8.8
25/03:54pm 22.5 21.2 20.6 89 1.2 S 28 39 15 21 1014.3 1014.2 8.8
25/03:30pm 23.1 22.2 19.9 82 2.1 SW 24 48 13 26 1014.2 1014.1 6.6
25/03:27pm 24.5 22.6 19.3 73 3.3 SW 28 48 15 26 1014.1 1014.0 2.6
25/03:18pm 27.8 25.0 17.3 52 6.6 SSW 28 48 15 26 1013.5 1013.4 0.0
25/03:00pm 31.2 28.1 15.6 39 9.7 ESE 26 39 14 21 1011.8 1011.7 0.0
25/02:30pm 33.5 31.7 14.5 31 11.7 SE 17 32 9 17 1010.9 1010.8 0.0
25/02:00pm 34.4 30.5 14.3 30 12.4 E 28 39 15 21 1010.9 1010.8 0.0
25/01:30pm 35.3 33.3 15.6 31 12.4 E 20 32 11 17 1011.2 1011.1 0.0
25/01:00pm 35.4 34.1 15.7 31 12.4 N 17 22 9 12 1011.2 1011.1 0.0
25/12:30pm 35.0 35.0 17.2 34 11.4 NNE 13 20 7 11 1011.8 1011.7 0.0
25/12:00pm 34.4 34.7 18.0 37 10.6 N 13 22 7 12 1012.1 1012.0 0.0
25/11:30am 32.9 33.8 17.5 39 9.9 N 9 22 5 12 1012.7 1012.6 0.0
25/11:00am 32.1 33.0 17.6 42 9.3 N 9 15 5 8 1012.8 1012.7 0.0
25/10:30am 30.9 32.0 18.9 48 7.8 N 11 17 6 9 1012.9 1012.8 0.0
25/10:00am 29.9 31.7 19.6 54 6.7 N 9 15 5 8 1013.1 1013.0 0.0
25/09:30am 29.2 32.0 20.4 59 5.8 NNE 6 13 3 7 1013.4 1013.3 0.0
25/09:00am 27.5 29.9 19.6 62 5.1 W 6 7 3 4 1013.4 1013.3 0.0
25/08:30am 25.6 27.8 19.5 69 3.9 NNE 7 11 4 6 1013.5 1013.4 0.0
25/08:00am 23.6 25.7 19.3 77 2.7 N 7 9 4 5 1013.3 1013.2 0.0
25/07:30am 22.5 24.7 19.1 81 2.2 N 6 9 3 5 1012.9 1012.8 0.0
25/07:00am 21.3 24.5 18.9 86 1.5 CALM 0 0 0 0 1012.9 1012.8 0.0
25/06:30am 20.5 23.8 19.0 91 0.9 CALM 0 0 0 0 1012.6 1012.5 0.0
25/06:00am 19.4 21.1 18.1 92 0.8 WSW 6 7 3 4 1012.3 1012.2 0.0
25/05:30am 20.0 22.9 18.3 90 1.1 CALM 0 6 0 3 1011.9 1011.8 0.0
25/05:00am 20.2 23.1 18.1 88 1.3 CALM 0 0 0 0 1011.8 1011.7 0.0
25/04:30am 20.5 22.4 18.6 89 1.2 SSW 6 9 3 5 1011.7 1011.6 0.0
25/04:00am 20.7 23.2 18.1 85 1.6 N 2 7 1 4 1011.3 1011.2 0.0
25/03:30am 21.4 23.2 18.4 83 1.9 ENE 6 9 3 5 1011.4 1011.3 0.0
25/03:00am 21.8 23.2 18.6 82 2.0 E 9 13 5 7 1011.2 1011.1 0.0
25/02:30am 22.1 23.5 18.7 81 2.1 E 9 11 5 6 1011.3 1011.2 0.0
25/02:00am 22.3 24.2 18.9 81 2.2 SE 7 11 4 6 1011.6 1011.5 0.0
25/01:30am 22.4 23.6 19.0 81 2.2 S 11 13 6 7 1011.8 1011.7 0.0
25/01:00am 22.1 24.2 18.9 82 2.0 SE 6 17 3 9 1012.2 1012.1 0.0
25/12:30am 22.3 23.5 19.1 82 2.0 NNE 11 15 6 8 1011.3 1011.2 0.0
25/12:00am 22.3 24.2 18.9 81 2.2 NNE 7 11 4 6 1011.3 1011.2 0.0
 
Date/Time
EDT
Temp
°C
App
Temp
°C
Dew
Point
Rel
Hum
%
Delta-T
°C
Wind Press
QNH
hPa
Press
MSL
hPa
Rain
since 9 am
mm
Dir
 
Spd
km/h
Gust
km/h
Spd
kts
Gust
kts
24/11:30pm 22.4 24.3 19.0 81 2.2 NE 7 9 4 5 1011.4 1011.3 0.0
24/11:00pm 22.5 24.1 19.1 81 2.2 NE 9 11 5 6 1011.4 1011.3 0.0
24/10:30pm 22.7 24.7 19.1 80 2.3 ENE 7 11 4 6 1011.5 1011.4 0.0
24/10:00pm 22.8 24.4 19.2 80 2.3 NE 9 13 5 7 1011.3 1011.2 0.0
24/09:30pm 23.1 24.4 19.3 79 2.4 ENE 11 15 6 8 1010.9 1010.8 0.0
24/09:00pm 23.4 24.7 19.3 78 2.6 ENE 11 15 6 8 1010.5 1010.4 0.0
24/08:30pm 24.0 24.9 19.3 75 3.0 ENE 13 20 7 11 1010.2 1010.1 0.0
24/08:00pm 24.9 25.7 19.0 69 3.8 ENE 13 20 7 11 1009.7 1009.6 0.0
24/07:30pm 26.2 27.3 18.8 63 4.7 NE 11 15 6 8 1009.5 1009.4 0.0
24/07:00pm 27.8 27.7 18.8 58 5.8 ENE 17 22 9 12 1009.1 1009.0 0.0
24/06:30pm 29.8 29.4 18.9 52 7.1 ENE 19 26 10 14 1008.6 1008.5 0.0
24/06:00pm 30.4 30.0 18.8 50 7.5 ENE 19 28 10 15 1008.4 1008.3 0.0
24/05:30pm 31.8 31.2 18.4 45 8.7 ENE 19 30 10 16 1008.4 1008.3 0.0
24/05:00pm 32.5 30.9 18.3 43 9.2 ENE 24 30 13 16 1008.5 1008.4 0.0
24/04:30pm 34.4 31.7 17.6 37 10.8 NE 28 35 15 19 1008.8 1008.7 0.0
24/04:00pm 34.0 32.5 18.5 40 10.1 ENE 24 35 13 19 1009.1 1009.0 0.0
24/03:30pm 34.8 34.5 19.6 40 10.1 NE 20 28 11 15 1009.6 1009.5 0.0
24/03:00pm 34.8 33.6 19.2 39 10.3 NNE 24 33 13 18 1010.2 1010.1 0.0
24/02:30pm 35.2 34.9 19.1 38 10.6 NNE 19 28 10 15 1010.7 1010.6 0.0
24/02:00pm 36.0 35.9 19.9 39 10.8 NNE 20 32 11 17 1011.1 1011.0 0.0
24/01:30pm 36.3 37.2 19.3 37 11.3 NE 13 22 7 12 1011.5 1011.4 0.0
24/01:00pm 35.3 36.2 20.0 40 10.2 N 15 22 8 12 1012.1 1012.0 0.0
24/12:30pm 34.7 35.7 20.3 43 9.6 NE 15 22 8 12 1012.7 1012.6 0.0

Other Formats:

Comma delimited format used in spreadsheet applications
http://www.bom.gov.au/fwo/IDN60801/IDN60801.95570.axf

JavaScript Object Notation format (JSON) in row-major order
http://www.bom.gov.au/fwo/IDN60801/IDN60801.95570.json